Terminal Aerodrome Forecast
Issued by NWS

Home | Current Version | Previous Version | Text Only | Print | Product List | Glossary On
Versions: 1 2 3 4 5 6 7 8 9 10 11 12 13 14 15 16 17 18 19 20 21 22 23 24 25 26 27 28 29 30 31 32
354
FTUS46 KEKA 241721
TAFCEC
TAF
KCEC 241721Z 2418/2518 VRB06KT 3SM BR OVC002
     FM242100 28010KT P6SM FEW010 SCT030
     FM250300 VRB06KT 6SM BR FEW010 SCT030 BKN100
     FM250500 VRB04KT 2SM BR FEW001 OVC003=

USA.gov is the U.S. government's official web portal to all federal, state and local government web resources and services.